sensor_id;sensor_type;location;lat;lon;timestamp;temperature;humidity
18906;DHT22;9585;51.018;4.282;2023-05-27T00:01:52;10.50;99.90
18906;DHT22;9585;51.018;4.282;2023-05-27T00:04:25;10.40;99.90
18906;DHT22;9585;51.018;4.282;2023-05-27T00:06:53;10.50;99.90
18906;DHT22;9585;51.018;4.282;2023-05-27T00:09:33;10.50;99.90
18906;DHT22;9585;51.018;4.282;2023-05-27T00:12:06;10.50;99.90
18906;DHT22;9585;51.018;4.282;2023-05-27T00:14:35;10.50;99.90
18906;DHT22;9585;51.018;4.282;2023-05-27T00:17:05;10.40;99.90
18906;DHT22;9585;51.018;4.282;2023-05-27T00:19:40;10.30;99.90
18906;DHT22;9585;51.018;4.282;2023-05-27T00:22:20;10.30;99.90
18906;DHT22;9585;51.018;4.282;2023-05-27T00:25:01;10.30;99.90
18906;DHT22;9585;51.018;4.282;2023-05-27T00:27:29;10.30;99.90
18906;DHT22;9585;51.018;4.282;2023-05-27T00:30:01;10.30;99.90
18906;DHT22;9585;51.018;4.282;2023-05-27T00:32:43;10.20;99.90
18906;DHT22;9585;51.018;4.282;2023-05-27T00:35:12;10.20;99.90
18906;DHT22;9585;51.018;4.282;2023-05-27T00:37:46;10.20;99.90
18906;DHT22;9585;51.018;4.282;2023-05-27T00:40:15;10.20;99.90
18906;DHT22;9585;51.018;4.282;2023-05-27T00:42:44;10.20;99.90
18906;DHT22;9585;51.018;4.282;2023-05-27T00:45:13;10.10;99.90
18906;DHT22;9585;51.018;4.282;2023-05-27T00:47:41;10.10;99.90
18906;DHT22;9585;51.018;4.282;2023-05-27T00:50:13;10.00;99.90
18906;DHT22;9585;51.018;4.282;2023-05-27T00:52:47;10.00;99.90
18906;DHT22;9585;51.018;4.282;2023-05-27T00:55:19;9.90;99.90
18906;DHT22;9585;51.018;4.282;2023-05-27T00:57:54;9.90;99.90
18906;DHT22;9585;51.018;4.282;2023-05-27T01:00:25;9.80;99.90
18906;DHT22;9585;51.018;4.282;2023-05-27T01:02:53;9.80;99.90
18906;DHT22;9585;51.018;4.282;2023-05-27T01:05:23;9.70;99.90
18906;DHT22;9585;51.018;4.282;2023-05-27T01:08:03;9.70;99.90
18906;DHT22;9585;51.018;4.282;2023-05-27T01:10:46;9.70;99.90
18906;DHT22;9585;51.018;4.282;2023-05-27T01:13:22;9.70;99.90
18906;DHT22;9585;51.018;4.282;2023-05-27T01:15:54;9.70;99.90
18906;DHT22;9585;51.018;4.282;2023-05-27T01:18:24;9.60;99.90
18906;DHT22;9585;51.018;4.282;2023-05-27T01:21:02;9.60;99.90
18906;DHT22;9585;51.018;4.282;2023-05-27T01:23:32;9.60;99.90
18906;DHT22;9585;51.018;4.282;2023-05-27T01:26:00;9.50;99.90
18906;DHT22;9585;51.018;4.282;2023-05-27T01:28:30;9.50;99.90
18906;DHT22;9585;51.018;4.282;2023-05-27T01:31:07;9.40;99.90
18906;DHT22;9585;51.018;4.282;2023-05-27T01:33:38;9.30;99.90
18906;DHT22;9585;51.018;4.282;2023-05-27T01:36:13;9.30;99.90
18906;DHT22;9585;51.018;4.282;2023-05-27T01:38:44;9.30;99.90
18906;DHT22;9585;51.018;4.282;2023-05-27T01:41:14;9.20;99.90
18906;DHT22;9585;51.018;4.282;2023-05-27T01:43:43;9.10;99.90
18906;DHT22;9585;51.018;4.282;2023-05-27T01:46:14;9.10;99.90
18906;DHT22;9585;51.018;4.282;2023-05-27T01:48:42;9.10;99.90
18906;DHT22;9585;51.018;4.282;2023-05-27T01:51:10;9.10;99.90
18906;DHT22;9585;51.018;4.282;2023-05-27T01:53:39;9.10;99.90
18906;DHT22;9585;51.018;4.282;2023-05-27T01:56:09;9.10;99.90
18906;DHT22;9585;51.018;4.282;2023-05-27T01:58:37;9.00;99.90
18906;DHT22;9585;51.018;4.282;2023-05-27T02:01:06;9.00;99.90
18906;DHT22;9585;51.018;4.282;2023-05-27T02:03:34;8.90;99.90
18906;DHT22;9585;51.018;4.282;2023-05-27T02:06:01;8.90;99.90
18906;DHT22;9585;51.018;4.282;2023-05-27T02:08:32;8.90;99.90
18906;DHT22;9585;51.018;4.282;2023-05-27T02:11:01;8.80;99.90
18906;DHT22;9585;51.018;4.282;2023-05-27T02:13:33;8.70;99.90
18906;DHT22;9585;51.018;4.282;2023-05-27T02:16:02;8.70;99.90
18906;DHT22;9585;51.018;4.282;2023-05-27T02:18:30;8.80;99.90
18906;DHT22;9585;51.018;4.282;2023-05-27T02:20:58;8.70;99.90
18906;DHT22;9585;51.018;4.282;2023-05-27T02:23:31;8.60;99.90
18906;DHT22;9585;51.018;4.282;2023-05-27T02:26:14;8.60;99.90
18906;DHT22;9585;51.018;4.282;2023-05-27T02:28:44;8.60;99.90
18906;DHT22;9585;51.018;4.282;2023-05-27T02:31:12;8.60;99.90
18906;DHT22;9585;51.018;4.282;2023-05-27T02:33:42;8.50;99.90
18906;DHT22;9585;51.018;4.282;2023-05-27T02:36:10;8.50;99.90
18906;DHT22;9585;51.018;4.282;2023-05-27T02:38:38;8.50;99.90
18906;DHT22;9585;51.018;4.282;2023-05-27T02:41:10;8.50;99.90
18906;DHT22;9585;51.018;4.282;2023-05-27T02:43:38;8.50;99.90
18906;DHT22;9585;51.018;4.282;2023-05-27T02:46:15;8.40;99.90
18906;DHT22;9585;51.018;4.282;2023-05-27T02:48:44;8.50;99.90
18906;DHT22;9585;51.018;4.282;2023-05-27T02:51:12;8.40;99.90
18906;DHT22;9585;51.018;4.282;2023-05-27T02:53:39;8.40;99.90
18906;DHT22;9585;51.018;4.282;2023-05-27T02:56:07;8.40;99.90
18906;DHT22;9585;51.018;4.282;2023-05-27T02:58:35;8.30;99.90
18906;DHT22;9585;51.018;4.282;2023-05-27T03:01:03;8.30;99.90
18906;DHT22;9585;51.018;4.282;2023-05-27T03:03:32;8.30;99.90
18906;DHT22;9585;51.018;4.282;2023-05-27T03:06:01;8.30;99.90
18906;DHT22;9585;51.018;4.282;2023-05-27T03:08:29;8.20;99.90
18906;DHT22;9585;51.018;4.282;2023-05-27T03:11:00;8.20;99.90
18906;DHT22;9585;51.018;4.282;2023-05-27T03:13:31;8.20;99.90
18906;DHT22;9585;51.018;4.282;2023-05-27T03:16:02;8.20;99.90
18906;DHT22;9585;51.018;4.282;2023-05-27T03:18:37;8.10;99.90
18906;DHT22;9585;51.018;4.282;2023-05-27T03:21:07;8.10;99.90
18906;DHT22;9585;51.018;4.282;2023-05-27T03:23:44;8.10;99.90
18906;DHT22;9585;51.018;4.282;2023-05-27T03:26:12;8.10;99.90
18906;DHT22;9585;51.018;4.282;2023-05-27T03:28:39;8.00;99.90
18906;DHT22;9585;51.018;4.282;2023-05-27T03:31:07;8.00;99.90
18906;DHT22;9585;51.018;4.282;2023-05-27T03:33:46;7.90;99.90
18906;DHT22;9585;51.018;4.282;2023-05-27T03:36:17;7.90;99.90
18906;DHT22;9585;51.018;4.282;2023-05-27T03:38:45;7.80;99.90
18906;DHT22;9585;51.018;4.282;2023-05-27T03:41:14;7.80;99.90
18906;DHT22;9585;51.018;4.282;2023-05-27T03:43:47;7.80;99.90
18906;DHT22;9585;51.018;4.282;2023-05-27T03:46:16;7.80;99.90
18906;DHT22;9585;51.018;4.282;2023-05-27T03:48:50;7.80;99.90
18906;DHT22;9585;51.018;4.282;2023-05-27T03:51:29;7.80;99.90
18906;DHT22;9585;51.018;4.282;2023-05-27T03:54:00;7.80;99.90
18906;DHT22;9585;51.018;4.282;2023-05-27T03:56:27;7.80;99.90
18906;DHT22;9585;51.018;4.282;2023-05-27T03:58:55;7.80;99.90
18906;DHT22;9585;51.018;4.282;2023-05-27T04:01:26;7.70;99.90
18906;DHT22;9585;51.018;4.282;2023-05-27T04:03:56;7.70;99.90
18906;DHT22;9585;51.018;4.282;2023-05-27T04:06:24;7.70;99.90
18906;DHT22;9585;51.018;4.282;2023-05-27T04:08:51;7.80;99.90
18906;DHT22;9585;51.018;4.282;2023-05-27T04:11:19;7.70;99.90
18906;DHT22;9585;51.018;4.282;2023-05-27T04:13:49;7.80;99.90
18906;DHT22;9585;51.018;4.282;2023-05-27T04:16:16;7.80;99.90
18906;DHT22;9585;51.018;4.282;2023-05-27T04:18:46;7.90;99.90
18906;DHT22;9585;51.018;4.282;2023-05-27T04:21:19;7.90;99.90
18906;DHT22;9585;51.018;4.282;2023-05-27T04:23:47;7.90;99.90
18906;DHT22;9585;51.018;4.282;2023-05-27T04:26:15;7.80;99.90
18906;DHT22;9585;51.018;4.282;2023-05-27T04:28:43;7.90;99.90
18906;DHT22;9585;51.018;4.282;2023-05-27T04:31:13;7.90;99.90
18906;DHT22;9585;51.018;4.282;2023-05-27T04:33:41;8.00;99.90
18906;DHT22;9585;51.018;4.282;2023-05-27T04:36:11;8.10;99.90
18906;DHT22;9585;51.018;4.282;2023-05-27T04:38:44;8.10;99.90
18906;DHT22;9585;51.018;4.282;2023-05-27T04:41:14;8.10;99.90
18906;DHT22;9585;51.018;4.282;2023-05-27T04:43:41;8.20;99.90
18906;DHT22;9585;51.018;4.282;2023-05-27T04:46:09;8.30;99.90
18906;DHT22;9585;51.018;4.282;2023-05-27T04:48:40;8.30;99.90
18906;DHT22;9585;51.018;4.282;2023-05-27T04:51:10;8.40;99.90
18906;DHT22;9585;51.018;4.282;2023-05-27T04:53:41;8.50;99.90
18906;DHT22;9585;51.018;4.282;2023-05-27T04:56:11;8.40;99.90
18906;DHT22;9585;51.018;4.282;2023-05-27T04:58:43;8.50;99.90
18906;DHT22;9585;51.018;4.282;2023-05-27T05:01:15;8.60;99.90
18906;DHT22;9585;51.018;4.282;2023-05-27T05:03:51;8.70;99.90
18906;DHT22;9585;51.018;4.282;2023-05-27T05:06:30;8.50;99.90
18906;DHT22;9585;51.018;4.282;2023-05-27T05:08:57;8.40;99.90
18906;DHT22;9585;51.018;4.282;2023-05-27T05:11:27;8.60;99.90
18906;DHT22;9585;51.018;4.282;2023-05-27T05:13:54;8.80;99.90
18906;DHT22;9585;51.018;4.282;2023-05-27T05:16:27;8.80;99.90
18906;DHT22;9585;51.018;4.282;2023-05-27T05:18:56;8.80;99.90
18906;DHT22;9585;51.018;4.282;2023-05-27T05:21:27;9.20;99.90
18906;DHT22;9585;51.018;4.282;2023-05-27T05:23:56;9.40;99.90
18906;DHT22;9585;51.018;4.282;2023-05-27T05:26:28;9.50;99.90
18906;DHT22;9585;51.018;4.282;2023-05-27T05:28:56;10.10;99.90
18906;DHT22;9585;51.018;4.282;2023-05-27T05:31:26;10.80;99.90
18906;DHT22;9585;51.018;4.282;2023-05-27T05:33:57;11.70;99.90
18906;DHT22;9585;51.018;4.282;2023-05-27T05:36:24;12.00;99.90
18906;DHT22;9585;51.018;4.282;2023-05-27T05:38:55;12.60;99.90
18906;DHT22;9585;51.018;4.282;2023-05-27T05:41:27;13.50;99.90
18906;DHT22;9585;51.018;4.282;2023-05-27T05:43:55;14.10;99.90
18906;DHT22;9585;51.018;4.282;2023-05-27T05:46:25;14.20;99.90
18906;DHT22;9585;51.018;4.282;2023-05-27T05:48:53;14.70;99.90
18906;DHT22;9585;51.018;4.282;2023-05-27T05:51:21;14.60;99.90
18906;DHT22;9585;51.018;4.282;2023-05-27T05:53:49;14.40;99.90
18906;DHT22;9585;51.018;4.282;2023-05-27T05:56:16;14.30;99.90
18906;DHT22;9585;51.018;4.282;2023-05-27T05:58:48;15.30;99.90
18906;DHT22;9585;51.018;4.282;2023-05-27T06:01:16;16.30;99.90
18906;DHT22;9585;51.018;4.282;2023-05-27T06:03:44;16.90;99.90
18906;DHT22;9585;51.018;4.282;2023-05-27T06:06:11;17.50;99.90
18906;DHT22;9585;51.018;4.282;2023-05-27T06:08:42;18.50;99.90
18906;DHT22;9585;51.018;4.282;2023-05-27T06:11:13;19.00;99.90
18906;DHT22;9585;51.018;4.282;2023-05-27T06:13:47;18.70;99.90
18906;DHT22;9585;51.018;4.282;2023-05-27T06:16:16;17.60;99.90
18906;DHT22;9585;51.018;4.282;2023-05-27T06:18:44;17.20;99.90
18906;DHT22;9585;51.018;4.282;2023-05-27T06:21:18;16.90;99.90
18906;DHT22;9585;51.018;4.282;2023-05-27T06:23:47;16.80;99.90
18906;DHT22;9585;51.018;4.282;2023-05-27T06:26:15;15.50;99.90
18906;DHT22;9585;51.018;4.282;2023-05-27T06:29:09;15.00;99.90
18906;DHT22;9585;51.018;4.282;2023-05-27T06:31:37;15.50;99.90
18906;DHT22;9585;51.018;4.282;2023-05-27T06:34:04;16.30;99.90
18906;DHT22;9585;51.018;4.282;2023-05-27T06:36:32;15.60;99.90
18906;DHT22;9585;51.018;4.282;2023-05-27T06:39:01;14.70;99.90
18906;DHT22;9585;51.018;4.282;2023-05-27T06:41:42;14.20;99.90
18906;DHT22;9585;51.018;4.282;2023-05-27T06:44:15;15.10;99.90
18906;DHT22;9585;51.018;4.282;2023-05-27T06:46:43;16.40;99.90
18906;DHT22;9585;51.018;4.282;2023-05-27T06:49:11;17.70;99.90
18906;DHT22;9585;51.018;4.282;2023-05-27T06:51:38;17.60;99.90
18906;DHT22;9585;51.018;4.282;2023-05-27T06:54:06;16.10;99.90
18906;DHT22;9585;51.018;4.282;2023-05-27T06:56:33;15.60;99.90
18906;DHT22;9585;51.018;4.282;2023-05-27T06:59:03;15.40;99.90
18906;DHT22;9585;51.018;4.282;2023-05-27T07:01:35;16.60;99.90
18906;DHT22;9585;51.018;4.282;2023-05-27T07:04:06;17.20;99.90
18906;DHT22;9585;51.018;4.282;2023-05-27T07:06:40;18.10;99.90
18906;DHT22;9585;51.018;4.282;2023-05-27T07:09:17;18.40;99.90
18906;DHT22;9585;51.018;4.282;2023-05-27T07:11:47;18.30;99.90
18906;DHT22;9585;51.018;4.282;2023-05-27T07:14:27;18.80;99.90
18906;DHT22;9585;51.018;4.282;2023-05-27T07:16:56;19.70;99.90
18906;DHT22;9585;51.018;4.282;2023-05-27T07:19:32;19.50;99.90
18906;DHT22;9585;51.018;4.282;2023-05-27T07:22:05;19.50;99.90
18906;DHT22;9585;51.018;4.282;2023-05-27T07:24:33;18.00;99.90
18906;DHT22;9585;51.018;4.282;2023-05-27T07:27:01;16.40;99.90
18906;DHT22;9585;51.018;4.282;2023-05-27T07:29:30;16.30;99.90
18906;DHT22;9585;51.018;4.282;2023-05-27T07:32:02;16.90;99.90
18906;DHT22;9585;51.018;4.282;2023-05-27T07:34:37;18.10;99.90
18906;DHT22;9585;51.018;4.282;2023-05-27T07:37:12;19.20;99.90
18906;DHT22;9585;51.018;4.282;2023-05-27T07:39:41;18.60;99.90
18906;DHT22;9585;51.018;4.282;2023-05-27T07:42:10;18.40;99.90
18906;DHT22;9585;51.018;4.282;2023-05-27T07:44:49;18.90;99.90
18906;DHT22;9585;51.018;4.282;2023-05-27T07:47:21;18.50;99.90
18906;DHT22;9585;51.018;4.282;2023-05-27T07:49:53;19.50;99.90
18906;DHT22;9585;51.018;4.282;2023-05-27T07:52:23;20.00;99.90
18906;DHT22;9585;51.018;4.282;2023-05-27T07:54:57;20.10;99.90
18906;DHT22;9585;51.018;4.282;2023-05-27T07:57:28;20.20;99.90
18906;DHT22;9585;51.018;4.282;2023-05-27T08:00:00;20.20;99.90
18906;DHT22;9585;51.018;4.282;2023-05-27T08:02:31;19.70;99.90
18906;DHT22;9585;51.018;4.282;2023-05-27T08:04:59;19.50;99.90
18906;DHT22;9585;51.018;4.282;2023-05-27T08:07:30;20.00;99.90
18906;DHT22;9585;51.018;4.282;2023-05-27T08:09:58;20.10;99.90
18906;DHT22;9585;51.018;4.282;2023-05-27T08:12:25;20.40;99.90
18906;DHT22;9585;51.018;4.282;2023-05-27T08:14:55;20.40;99.90
18906;DHT22;9585;51.018;4.282;2023-05-27T08:17:25;19.80;99.90
18906;DHT22;9585;51.018;4.282;2023-05-27T08:19:57;19.20;99.90
18906;DHT22;9585;51.018;4.282;2023-05-27T08:22:25;19.60;99.90
18906;DHT22;9585;51.018;4.282;2023-05-27T08:24:53;20.10;99.90
18906;DHT22;9585;51.018;4.282;2023-05-27T08:27:41;19.50;99.90
18906;DHT22;9585;51.018;4.282;2023-05-27T08:30:09;19.90;99.90
18906;DHT22;9585;51.018;4.282;2023-05-27T08:32:37;19.30;99.90
18906;DHT22;9585;51.018;4.282;2023-05-27T08:35:14;18.90;99.90
18906;DHT22;9585;51.018;4.282;2023-05-27T08:37:43;20.00;99.90
18906;DHT22;9585;51.018;4.282;2023-05-27T08:40:14;20.80;99.90
18906;DHT22;9585;51.018;4.282;2023-05-27T08:42:42;21.40;99.90
18906;DHT22;9585;51.018;4.282;2023-05-27T08:45:10;21.20;99.90
18906;DHT22;9585;51.018;4.282;2023-05-27T08:47:39;21.20;99.90
18906;DHT22;9585;51.018;4.282;2023-05-27T08:50:09;21.20;99.90
18906;DHT22;9585;51.018;4.282;2023-05-27T08:52:45;20.60;99.90
18906;DHT22;9585;51.018;4.282;2023-05-27T08:55:15;19.90;99.90
18906;DHT22;9585;51.018;4.282;2023-05-27T08:57:50;19.10;99.90
18906;DHT22;9585;51.018;4.282;2023-05-27T09:00:19;18.70;99.90
18906;DHT22;9585;51.018;4.282;2023-05-27T09:02:47;17.80;99.90
18906;DHT22;9585;51.018;4.282;2023-05-27T09:05:16;17.30;99.90
18906;DHT22;9585;51.018;4.282;2023-05-27T09:07:45;17.00;99.90
18906;DHT22;9585;51.018;4.282;2023-05-27T09:10:13;16.90;99.90
18906;DHT22;9585;51.018;4.282;2023-05-27T09:12:42;17.10;99.90
18906;DHT22;9585;51.018;4.282;2023-05-27T09:15:12;18.00;99.90
18906;DHT22;9585;51.018;4.282;2023-05-27T09:17:41;18.40;99.90
18906;DHT22;9585;51.018;4.282;2023-05-27T09:20:10;19.20;99.90
18906;DHT22;9585;51.018;4.282;2023-05-27T09:22:41;19.10;99.90
18906;DHT22;9585;51.018;4.282;2023-05-27T09:25:10;18.30;99.90
18906;DHT22;9585;51.018;4.282;2023-05-27T09:27:43;18.10;99.90
18906;DHT22;9585;51.018;4.282;2023-05-27T09:30:12;18.50;99.90
18906;DHT22;9585;51.018;4.282;2023-05-27T09:32:40;18.50;99.90
18906;DHT22;9585;51.018;4.282;2023-05-27T09:35:11;18.20;99.90
18906;DHT22;9585;51.018;4.282;2023-05-27T09:37:41;18.40;99.90
18906;DHT22;9585;51.018;4.282;2023-05-27T09:40:12;18.10;99.90
18906;DHT22;9585;51.018;4.282;2023-05-27T09:42:42;18.10;99.90
18906;DHT22;9585;51.018;4.282;2023-05-27T09:45:12;18.50;99.90
18906;DHT22;9585;51.018;4.282;2023-05-27T09:47:47;18.60;99.90
18906;DHT22;9585;51.018;4.282;2023-05-27T09:50:17;19.00;99.90
18906;DHT22;9585;51.018;4.282;2023-05-27T09:52:57;19.30;99.90
18906;DHT22;9585;51.018;4.282;2023-05-27T09:55:30;19.50;99.90
18906;DHT22;9585;51.018;4.282;2023-05-27T09:58:00;19.60;99.90
18906;DHT22;9585;51.018;4.282;2023-05-27T10:00:34;19.60;99.90
18906;DHT22;9585;51.018;4.282;2023-05-27T10:03:03;19.80;99.90
18906;DHT22;9585;51.018;4.282;2023-05-27T10:05:32;19.90;99.90
18906;DHT22;9585;51.018;4.282;2023-05-27T10:08:11;19.80;99.90
18906;DHT22;9585;51.018;4.282;2023-05-27T10:10:40;19.40;99.90
18906;DHT22;9585;51.018;4.282;2023-05-27T10:13:08;19.20;99.90
18906;DHT22;9585;51.018;4.282;2023-05-27T10:15:36;19.00;99.90
18906;DHT22;9585;51.018;4.282;2023-05-27T10:18:08;19.10;99.90
18906;DHT22;9585;51.018;4.282;2023-05-27T10:20:52;19.50;99.90
18906;DHT22;9585;51.018;4.282;2023-05-27T10:23:28;19.90;99.90
18906;DHT22;9585;51.018;4.282;2023-05-27T10:26:07;20.10;99.90
18906;DHT22;9585;51.018;4.282;2023-05-27T10:28:37;20.00;99.90
18906;DHT22;9585;51.018;4.282;2023-05-27T10:31:11;20.20;99.90
18906;DHT22;9585;51.018;4.282;2023-05-27T10:33:44;20.40;99.90
18906;DHT22;9585;51.018;4.282;2023-05-27T10:36:14;20.00;99.90
18906;DHT22;9585;51.018;4.282;2023-05-27T10:38:58;19.50;99.90
18906;DHT22;9585;51.018;4.282;2023-05-27T10:41:41;19.30;99.90
18906;DHT22;9585;51.018;4.282;2023-05-27T10:44:09;19.50;99.90
18906;DHT22;9585;51.018;4.282;2023-05-27T10:46:43;19.50;99.90
18906;DHT22;9585;51.018;4.282;2023-05-27T10:49:22;19.60;99.90
18906;DHT22;9585;51.018;4.282;2023-05-27T10:51:50;19.50;99.90
18906;DHT22;9585;51.018;4.282;2023-05-27T10:54:24;19.80;99.90
18906;DHT22;9585;51.018;4.282;2023-05-27T10:56:55;19.80;99.90
18906;DHT22;9585;51.018;4.282;2023-05-27T10:59:23;20.00;99.90
18906;DHT22;9585;51.018;4.282;2023-05-27T11:01:53;20.00;99.90
18906;DHT22;9585;51.018;4.282;2023-05-27T11:04:21;20.20;99.90
18906;DHT22;9585;51.018;4.282;2023-05-27T11:06:58;20.10;99.90
18906;DHT22;9585;51.018;4.282;2023-05-27T11:09:45;20.10;99.90
18906;DHT22;9585;51.018;4.282;2023-05-27T11:12:23;20.20;99.90
18906;DHT22;9585;51.018;4.282;2023-05-27T11:14:54;20.20;99.90
18906;DHT22;9585;51.018;4.282;2023-05-27T11:17:26;20.50;99.90
18906;DHT22;9585;51.018;4.282;2023-05-27T11:19:57;20.60;99.90
18906;DHT22;9585;51.018;4.282;2023-05-27T11:22:27;20.70;99.90
18906;DHT22;9585;51.018;4.282;2023-05-27T11:24:59;20.60;99.90
18906;DHT22;9585;51.018;4.282;2023-05-27T11:27:33;20.70;99.90
18906;DHT22;9585;51.018;4.282;2023-05-27T11:30:07;20.80;99.90
18906;DHT22;9585;51.018;4.282;2023-05-27T11:32:39;20.80;99.90
18906;DHT22;9585;51.018;4.282;2023-05-27T11:35:14;20.70;99.90
18906;DHT22;9585;51.018;4.282;2023-05-27T11:37:45;20.80;99.90
18906;DHT22;9585;51.018;4.282;2023-05-27T11:40:15;20.40;99.90
18906;DHT22;9585;51.018;4.282;2023-05-27T11:42:46;19.90;99.90
18906;DHT22;9585;51.018;4.282;2023-05-27T11:45:17;20.20;99.90
18906;DHT22;9585;51.018;4.282;2023-05-27T11:47:48;20.50;99.90
18906;DHT22;9585;51.018;4.282;2023-05-27T11:50:24;20.60;99.90
18906;DHT22;9585;51.018;4.282;2023-05-27T11:52:56;20.70;99.90
18906;DHT22;9585;51.018;4.282;2023-05-27T11:55:26;20.80;99.90
18906;DHT22;9585;51.018;4.282;2023-05-27T11:57:53;20.90;99.90
18906;DHT22;9585;51.018;4.282;2023-05-27T12:00:21;21.20;99.90
18906;DHT22;9585;51.018;4.282;2023-05-27T12:02:50;21.30;99.90
18906;DHT22;9585;51.018;4.282;2023-05-27T12:05:18;21.20;99.90
18906;DHT22;9585;51.018;4.282;2023-05-27T12:07:48;20.80;99.90
18906;DHT22;9585;51.018;4.282;2023-05-27T12:10:16;20.80;99.90
18906;DHT22;9585;51.018;4.282;2023-05-27T12:12:45;20.80;99.90
18906;DHT22;9585;51.018;4.282;2023-05-27T12:15:13;20.50;99.90
18906;DHT22;9585;51.018;4.282;2023-05-27T12:17:42;20.60;99.90
18906;DHT22;9585;51.018;4.282;2023-05-27T12:20:16;21.00;99.90
18906;DHT22;9585;51.018;4.282;2023-05-27T12:22:45;21.20;99.90
18906;DHT22;9585;51.018;4.282;2023-05-27T12:25:13;21.00;99.90
18906;DHT22;9585;51.018;4.282;2023-05-27T12:27:40;21.00;99.90
18906;DHT22;9585;51.018;4.282;2023-05-27T12:30:11;21.00;99.90
18906;DHT22;9585;51.018;4.282;2023-05-27T12:32:39;20.90;99.90
18906;DHT22;9585;51.018;4.282;2023-05-27T12:35:11;20.80;99.90
18906;DHT22;9585;51.018;4.282;2023-05-27T12:37:39;20.90;99.90
18906;DHT22;9585;51.018;4.282;2023-05-27T12:40:09;20.60;99.90
18906;DHT22;9585;51.018;4.282;2023-05-27T12:42:43;20.60;99.90
18906;DHT22;9585;51.018;4.282;2023-05-27T12:45:13;20.90;99.90
18906;DHT22;9585;51.018;4.282;2023-05-27T12:47:40;20.60;99.90
18906;DHT22;9585;51.018;4.282;2023-05-27T12:50:11;20.70;99.90
18906;DHT22;9585;51.018;4.282;2023-05-27T12:52:39;20.90;99.90
18906;DHT22;9585;51.018;4.282;2023-05-27T12:55:13;20.80;99.90
18906;DHT22;9585;51.018;4.282;2023-05-27T12:57:43;20.90;99.90
18906;DHT22;9585;51.018;4.282;2023-05-27T13:00:16;21.10;99.90
18906;DHT22;9585;51.018;4.282;2023-05-27T13:02:44;21.40;99.90
18906;DHT22;9585;51.018;4.282;2023-05-27T13:05:13;21.50;99.90
18906;DHT22;9585;51.018;4.282;2023-05-27T13:07:53;21.90;99.90
18906;DHT22;9585;51.018;4.282;2023-05-27T13:10:22;22.10;99.90
18906;DHT22;9585;51.018;4.282;2023-05-27T13:12:50;22.00;99.90
18906;DHT22;9585;51.018;4.282;2023-05-27T13:15:21;22.00;99.90
18906;DHT22;9585;51.018;4.282;2023-05-27T13:17:54;21.90;99.90
18906;DHT22;9585;51.018;4.282;2023-05-27T13:20:23;21.60;99.90
18906;DHT22;9585;51.018;4.282;2023-05-27T13:22:51;21.70;99.90
18906;DHT22;9585;51.018;4.282;2023-05-27T13:25:21;21.70;99.90
18906;DHT22;9585;51.018;4.282;2023-05-27T13:27:50;21.80;99.90
18906;DHT22;9585;51.018;4.282;2023-05-27T13:30:21;21.40;99.90
18906;DHT22;9585;51.018;4.282;2023-05-27T13:32:49;21.20;99.90
18906;DHT22;9585;51.018;4.282;2023-05-27T13:35:16;20.90;99.90
18906;DHT22;9585;51.018;4.282;2023-05-27T13:37:47;20.90;99.90
18906;DHT22;9585;51.018;4.282;2023-05-27T13:40:21;21.20;99.90
18906;DHT22;9585;51.018;4.282;2023-05-27T13:42:49;21.50;99.90
18906;DHT22;9585;51.018;4.282;2023-05-27T13:45:24;21.50;99.90
18906;DHT22;9585;51.018;4.282;2023-05-27T13:47:54;21.50;99.90
18906;DHT22;9585;51.018;4.282;2023-05-27T13:50:22;21.70;99.90
18906;DHT22;9585;51.018;4.282;2023-05-27T13:52:49;21.80;99.90
18906;DHT22;9585;51.018;4.282;2023-05-27T13:55:19;22.00;99.90
18906;DHT22;9585;51.018;4.282;2023-05-27T13:57:47;22.00;99.90
18906;DHT22;9585;51.018;4.282;2023-05-27T14:00:15;21.90;99.90
18906;DHT22;9585;51.018;4.282;2023-05-27T14:02:43;21.90;99.90
18906;DHT22;9585;51.018;4.282;2023-05-27T14:05:12;21.50;99.90
18906;DHT22;9585;51.018;4.282;2023-05-27T14:07:40;21.40;99.90
18906;DHT22;9585;51.018;4.282;2023-05-27T14:10:14;21.60;99.90
18906;DHT22;9585;51.018;4.282;2023-05-27T14:12:42;21.50;99.90
18906;DHT22;9585;51.018;4.282;2023-05-27T14:15:10;21.50;99.90
18906;DHT22;9585;51.018;4.282;2023-05-27T14:17:40;21.60;99.90
18906;DHT22;9585;51.018;4.282;2023-05-27T14:20:08;21.70;99.90
18906;DHT22;9585;51.018;4.282;2023-05-27T14:22:38;21.50;99.90
18906;DHT22;9585;51.018;4.282;2023-05-27T14:25:11;21.50;99.90
18906;DHT22;9585;51.018;4.282;2023-05-27T14:27:40;21.60;99.90
18906;DHT22;9585;51.018;4.282;2023-05-27T14:30:09;21.60;99.90
18906;DHT22;9585;51.018;4.282;2023-05-27T14:32:39;21.70;99.90
18906;DHT22;9585;51.018;4.282;2023-05-27T14:35:07;21.70;99.90
18906;DHT22;9585;51.018;4.282;2023-05-27T14:37:35;21.70;99.90
18906;DHT22;9585;51.018;4.282;2023-05-27T14:40:08;21.90;99.90
18906;DHT22;9585;51.018;4.282;2023-05-27T14:42:36;21.90;99.90
18906;DHT22;9585;51.018;4.282;2023-05-27T14:45:05;22.00;99.90
18906;DHT22;9585;51.018;4.282;2023-05-27T14:47:33;21.90;99.90
18906;DHT22;9585;51.018;4.282;2023-05-27T14:50:00;22.00;99.90
18906;DHT22;9585;51.018;4.282;2023-05-27T14:52:28;22.20;99.90
18906;DHT22;9585;51.018;4.282;2023-05-27T14:54:58;22.10;99.90
18906;DHT22;9585;51.018;4.282;2023-05-27T14:57:29;22.20;99.90
18906;DHT22;9585;51.018;4.282;2023-05-27T15:00:00;22.50;99.90
18906;DHT22;9585;51.018;4.282;2023-05-27T15:02:27;22.30;99.90
18906;DHT22;9585;51.018;4.282;2023-05-27T15:04:55;22.20;99.90
18906;DHT22;9585;51.018;4.282;2023-05-27T15:07:22;22.30;99.90
18906;DHT22;9585;51.018;4.282;2023-05-27T15:09:50;22.40;99.90
18906;DHT22;9585;51.018;4.282;2023-05-27T15:12:18;22.50;99.90
18906;DHT22;9585;51.018;4.282;2023-05-27T15:14:48;22.40;99.90
18906;DHT22;9585;51.018;4.282;2023-05-27T15:17:16;22.10;99.90
18906;DHT22;9585;51.018;4.282;2023-05-27T15:19:43;21.90;99.90
18906;DHT22;9585;51.018;4.282;2023-05-27T15:22:11;22.00;99.90
18906;DHT22;9585;51.018;4.282;2023-05-27T15:24:41;22.10;99.90
18906;DHT22;9585;51.018;4.282;2023-05-27T15:27:09;22.20;99.90
18906;DHT22;9585;51.018;4.282;2023-05-27T15:29:36;22.30;99.90
18906;DHT22;9585;51.018;4.282;2023-05-27T15:32:06;22.40;99.90
18906;DHT22;9585;51.018;4.282;2023-05-27T15:34:34;22.30;99.90
18906;DHT22;9585;51.018;4.282;2023-05-27T15:37:10;22.00;99.90
18906;DHT22;9585;51.018;4.282;2023-05-27T15:39:38;22.00;99.90
18906;DHT22;9585;51.018;4.282;2023-05-27T15:42:09;22.00;99.90
18906;DHT22;9585;51.018;4.282;2023-05-27T15:44:36;22.20;99.90
18906;DHT22;9585;51.018;4.282;2023-05-27T15:47:21;22.10;99.90
18906;DHT22;9585;51.018;4.282;2023-05-27T15:49:49;22.10;99.90
18906;DHT22;9585;51.018;4.282;2023-05-27T15:52:17;22.20;99.90
18906;DHT22;9585;51.018;4.282;2023-05-27T15:54:47;22.30;99.90
18906;DHT22;9585;51.018;4.282;2023-05-27T15:57:18;22.10;99.90
18906;DHT22;9585;51.018;4.282;2023-05-27T15:59:48;22.00;99.90
18906;DHT22;9585;51.018;4.282;2023-05-27T16:02:18;22.10;99.90
18906;DHT22;9585;51.018;4.282;2023-05-27T16:04:45;22.10;99.90
18906;DHT22;9585;51.018;4.282;2023-05-27T16:07:14;22.10;99.90
18906;DHT22;9585;51.018;4.282;2023-05-27T16:09:42;22.00;99.90
18906;DHT22;9585;51.018;4.282;2023-05-27T16:12:12;22.10;99.90